createdAt,value
2022-09-24T00:01:28.763Z,35.00
2022-09-24T00:04:01.249Z,33.22
2022-09-24T00:06:29.938Z,34.03
2022-09-24T00:08:57.565Z,34.70
2022-09-24T00:11:28.841Z,32.47
2022-09-24T00:13:57.266Z,34.55
2022-09-24T00:16:26.095Z,33.42
2022-09-24T00:18:53.607Z,34.97
2022-09-24T00:21:24.043Z,33.13
2022-09-24T00:23:59.743Z,31.40
2022-09-24T00:26:45.594Z,30.58
2022-09-24T00:29:16.296Z,29.60
2022-09-24T00:31:43.043Z,28.55
2022-09-24T00:34:10.715Z,30.88
2022-09-24T00:36:37.384Z,29.10
2022-09-24T00:39:05.208Z,31.38
2022-09-24T00:41:35.949Z,31.70
2022-09-24T00:44:37.619Z,29.95
2022-09-24T00:47:04.546Z,30.10
2022-09-24T00:49:31.198Z,30.03
2022-09-24T00:51:57.740Z,29.70
2022-09-24T00:54:28.479Z,30.50
2022-09-24T00:56:57.706Z,29.65
2022-09-24T00:59:25.785Z,32.03
2022-09-24T05:32:34.717Z,44.13
2022-09-24T05:35:02.250Z,49.33
2022-09-24T05:37:29.379Z,45.15
2022-09-24T05:39:58.127Z,41.50
2022-09-24T05:42:28.481Z,43.80
2022-09-24T05:44:55.233Z,42.80
2022-09-24T05:47:22.774Z,39.05
2022-09-24T05:49:49.409Z,38.58
2022-09-24T05:52:16.430Z,40.97
2022-09-24T05:54:43.499Z,38.25
2022-09-24T05:57:09.997Z,37.72
2022-09-24T05:59:36.532Z,38.83
2022-09-24T06:02:03.506Z,36.83
2022-09-24T06:04:31.068Z,39.10
2022-09-24T06:06:57.555Z,37.88
2022-09-24T06:09:24.437Z,38.42
2022-09-24T06:11:53.936Z,41.55
2022-09-24T06:14:20.718Z,34.35
2022-09-24T06:16:47.303Z,36.37
2022-09-24T06:19:13.891Z,37.25
2022-09-24T06:21:40.566Z,35.95
2022-09-24T06:24:07.516Z,37.90
2022-09-24T06:26:34.226Z,39.83
2022-09-24T06:29:04.946Z,36.70
2022-09-24T06:31:32.133Z,38.42
2022-09-24T06:33:59.027Z,39.58
2022-09-24T06:36:25.607Z,38.38
2022-09-24T06:38:53.106Z,38.33
2022-09-24T06:41:19.672Z,39.87
2022-09-24T06:43:46.302Z,37.67
2022-09-24T06:46:15.316Z,39.13
2022-09-24T06:48:42.892Z,41.10
2022-09-24T06:51:09.499Z,43.30
2022-09-24T06:53:36.567Z,40.40
2022-09-24T06:56:06.172Z,41.60
2022-09-24T06:58:34.050Z,41.55
2022-09-24T07:01:03.674Z,40.72
2022-09-24T07:03:32.649Z,39.85
2022-09-24T07:06:05.041Z,42.17
2022-09-24T07:08:32.402Z,41.30
2022-09-24T07:11:00.861Z,40.88
2022-09-24T07:13:27.476Z,39.45
2022-09-24T07:15:54.579Z,35.75
2022-09-24T07:18:21.599Z,37.20
2022-09-24T07:20:52.752Z,36.08
2022-09-24T07:23:19.434Z,36.85
2022-09-24T07:25:46.069Z,37.28
2022-09-24T07:28:15.399Z,38.38
2022-09-24T07:30:43.214Z,37.50
2022-09-24T07:33:09.971Z,35.72
2022-09-24T07:35:41.314Z,34.92
2022-09-24T07:38:14.246Z,36.15
2022-09-24T07:40:41.196Z,33.10
2022-09-24T07:43:12.386Z,32.20
2022-09-24T07:45:39.957Z,32.88
2022-09-24T07:48:06.983Z,32.95
2022-09-24T07:50:38.896Z,31.90
2022-09-24T07:53:06.703Z,33.00
2022-09-24T07:55:39.495Z,30.43
2022-09-24T07:58:09.263Z,29.63
2022-09-24T08:00:35.969Z,27.73
2022-09-24T08:03:03.711Z,27.58
2022-09-24T08:05:30.727Z,27.92
2022-09-24T08:07:57.850Z,28.20
2022-09-24T08:10:26.944Z,29.08
2022-09-24T08:12:53.917Z,27.60
2022-09-24T08:15:22.746Z,26.90
2022-09-24T08:17:50.152Z,27.42
2022-09-24T08:20:17.064Z,28.37
2022-09-24T08:22:44.293Z,30.42
2022-09-24T08:25:11.243Z,29.83
2022-09-24T08:27:37.803Z,26.95
2022-09-24T08:30:05.792Z,26.48
2022-09-24T08:32:32.396Z,28.90
2022-09-24T08:34:59.583Z,27.70
2022-09-24T08:37:28.848Z,26.48
2022-09-24T08:39:56.644Z,25.90
2022-09-24T08:43:07.645Z,24.33
2022-09-24T08:46:01.735Z,26.57
2022-09-24T08:48:33.081Z,26.17
2022-09-24T08:51:03.717Z,27.33
2022-09-24T08:53:55.059Z,27.23
2022-09-24T08:56:27.162Z,27.58
2022-09-24T08:58:58.529Z,25.87
2022-09-24T09:01:53.564Z,27.85
2022-09-24T09:04:26.423Z,26.85
2022-09-24T09:07:04.827Z,26.48
2022-09-24T09:09:54.398Z,27.30
2022-09-24T09:12:32.074Z,28.70
2022-09-24T09:15:07.236Z,26.48
2022-09-24T09:17:42.434Z,25.95
2022-09-24T09:20:35.550Z,26.55
2022-09-24T09:23:21.495Z,25.15
2022-09-24T09:25:53.111Z,22.23
2022-09-24T09:28:20.171Z,24.20
2022-09-24T09:31:24.046Z,24.27
2022-09-24T09:34:18.264Z,23.10
2022-09-24T09:37:10.965Z,24.17
2022-09-24T09:39:55.926Z,24.57
2022-09-24T09:42:33.230Z,23.70
2022-09-24T09:45:02.534Z,25.15
2022-09-24T09:47:41.349Z,23.48
2022-09-24T09:50:37.284Z,23.77
2022-09-24T09:53:06.026Z,21.80
2022-09-24T09:55:36.764Z,21.88
2022-09-24T09:58:15.613Z,22.27
2022-09-24T10:00:42.793Z,23.27
2022-09-24T10:03:28.905Z,22.88
2022-09-24T10:05:58.873Z,21.83
2022-09-24T10:08:25.940Z,23.35
2022-09-24T10:10:57.595Z,21.15
2022-09-24T10:13:25.159Z,22.52
2022-09-24T10:15:57.600Z,21.17
2022-09-24T10:18:54.795Z,20.57
2022-09-24T10:21:36.878Z,21.77
2022-09-24T10:24:07.097Z,20.92
2022-09-24T10:26:42.407Z,21.30
2022-09-24T10:29:35.502Z,20.83
2022-09-24T10:32:04.124Z,20.00
2022-09-24T10:34:31.588Z,18.25
2022-09-24T10:37:07.404Z,18.58
2022-09-24T10:39:37.152Z,20.05
2022-09-24T10:42:05.178Z,17.80
2022-09-24T10:44:37.033Z,17.60
2022-09-24T10:47:27.178Z,17.48
2022-09-24T10:50:16.698Z,17.17
2022-09-24T10:52:54.707Z,16.10
2022-09-24T10:55:56.289Z,16.13
2022-09-24T10:58:29.087Z,16.77
2022-09-24T11:01:08.750Z,17.00
2022-09-24T11:03:35.368Z,16.35
2022-09-24T11:06:34.926Z,17.38
2022-09-24T11:09:10.113Z,16.23
2022-09-24T11:11:54.644Z,17.93
2022-09-24T11:14:38.267Z,16.00
2022-09-24T11:17:31.923Z,16.00
2022-09-24T11:20:23.735Z,17.10
2022-09-24T11:23:18.071Z,18.45
2022-09-24T11:25:53.787Z,15.93
2022-09-24T11:28:48.802Z,16.73
2022-09-24T11:31:30.529Z,16.13
2022-09-24T11:34:12.516Z,16.10
2022-09-24T11:36:49.426Z,12.65
2022-09-24T11:39:29.584Z,15.17
2022-09-24T11:42:03.599Z,14.57
2022-09-24T11:44:57.947Z,11.75
2022-09-24T11:47:56.975Z,11.60
2022-09-24T11:50:35.319Z,10.98
2022-09-24T11:53:04.685Z,9.80
2022-09-24T11:55:36.954Z,11.85
2022-09-24T11:58:16.810Z,12.10
2022-09-24T12:01:03.665Z,11.85
2022-09-24T12:03:40.330Z,12.43
2022-09-24T12:06:13.556Z,11.20
2022-09-24T12:08:45.168Z,11.75
2022-09-24T12:11:24.799Z,12.07
2022-09-24T12:13:58.300Z,11.30
2022-09-24T12:16:27.918Z,12.80
2022-09-24T12:18:57.022Z,12.30
2022-09-24T12:21:33.637Z,12.73
2022-09-24T12:24:06.960Z,13.05
2022-09-24T12:26:38.827Z,9.32
2022-09-24T12:29:47.118Z,7.60
2022-09-24T12:32:39.965Z,7.73
2022-09-24T12:35:28.318Z,6.68
2022-09-24T12:38:10.949Z,8.27
2022-09-24T12:40:53.427Z,9.57
2022-09-24T12:43:43.751Z,8.10
2022-09-24T12:46:33.177Z,9.10
2022-09-24T12:49:01.070Z,11.65
2022-09-24T12:51:39.422Z,9.18
2022-09-24T12:54:31.660Z,9.73
2022-09-24T12:57:33.181Z,8.90
2022-09-24T13:00:02.239Z,8.87
2022-09-24T13:02:28.923Z,7.45
2022-09-24T13:05:02.021Z,8.30
2022-09-24T13:07:34.086Z,7.78
2022-09-24T13:10:31.713Z,8.27
2022-09-24T13:13:00.312Z,8.87
2022-09-24T13:15:38.698Z,8.48
2022-09-24T13:18:11.397Z,8.73
2022-09-24T13:20:40.187Z,8.07
2022-09-24T13:23:19.776Z,9.52
2022-09-24T13:26:07.695Z,7.07
2022-09-24T13:29:01.480Z,8.18
2022-09-24T13:31:28.101Z,13.77
2022-09-24T13:34:03.294Z,10.13
2022-09-24T13:36:47.109Z,11.73
2022-09-24T13:39:17.589Z,9.50
2022-09-24T13:42:04.088Z,11.52
2022-09-24T13:44:35.738Z,10.73
2022-09-24T13:47:13.098Z,14.10
2022-09-24T13:49:44.724Z,15.55
2022-09-24T13:52:25.397Z,11.07
2022-09-24T13:54:56.708Z,15.63
2022-09-24T13:57:25.531Z,13.52
2022-09-24T14:00:15.567Z,12.57
2022-09-24T14:02:54.024Z,16.00
2022-09-24T14:05:22.089Z,12.93
2022-09-24T14:08:08.867Z,12.98
2022-09-24T14:10:36.648Z,15.07
2022-09-24T14:13:09.279Z,11.40
2022-09-24T14:15:36.542Z,18.02
2022-09-24T14:18:03.441Z,10.13
2022-09-24T14:20:35.287Z,12.40
2022-09-24T14:23:03.561Z,11.77
2022-09-24T14:25:39.866Z,12.28
2022-09-24T14:28:06.627Z,9.60
2022-09-24T14:30:35.795Z,10.48
2022-09-24T14:33:11.912Z,13.07
2022-09-24T14:35:40.032Z,11.05
2022-09-24T14:38:20.179Z,9.40
2022-09-24T14:41:06.368Z,10.18
2022-09-24T14:43:42.163Z,6.72
2022-09-24T14:46:17.505Z,9.63
2022-09-24T14:48:45.172Z,7.90
2022-09-24T14:51:50.327Z,6.70
2022-09-24T14:54:33.504Z,5.82
2022-09-24T14:57:24.599Z,7.85
2022-09-24T14:59:52.392Z,5.17
2022-09-24T15:02:29.515Z,7.20
2022-09-24T15:05:04.771Z,7.97
2022-09-24T15:07:33.956Z,6.35
2022-09-24T15:10:02.947Z,12.13
2022-09-24T15:12:32.317Z,8.70
2022-09-24T15:15:16.890Z,6.13
2022-09-24T15:17:47.066Z,10.93
2022-09-24T15:20:14.083Z,8.45
2022-09-24T15:22:40.730Z,10.43
2022-09-24T15:25:07.639Z,13.27
2022-09-24T15:27:38.021Z,12.18
2022-09-24T15:30:08.199Z,9.15
2022-09-24T15:32:36.008Z,10.35
2022-09-24T15:35:08.463Z,12.43
2022-09-24T15:37:38.917Z,11.20
2022-09-24T15:40:26.500Z,11.20
2022-09-24T15:42:53.073Z,10.35
2022-09-24T15:45:22.181Z,10.23
2022-09-24T15:47:50.187Z,10.70
2022-09-24T15:50:17.650Z,10.23
2022-09-24T15:52:52.692Z,9.82
2022-09-24T15:55:20.967Z,11.95
2022-09-24T15:57:47.896Z,8.30
2022-09-24T16:00:16.799Z,11.30
2022-09-24T16:02:46.932Z,10.00
2022-09-24T16:05:16.568Z,45.90
2022-09-24T16:07:43.255Z,9.43
2022-09-24T16:10:11.642Z,12.00
2022-09-24T16:12:38.595Z,8.98
2022-09-24T16:15:05.967Z,12.97
2022-09-24T16:17:33.197Z,10.52
2022-09-24T16:19:59.925Z,11.50
2022-09-24T16:22:26.517Z,11.25
2022-09-24T16:24:54.186Z,8.13
2022-09-24T16:27:20.713Z,9.03
2022-09-24T16:29:47.394Z,8.18
2022-09-24T16:32:14.091Z,11.52
2022-09-24T16:34:40.966Z,12.13
2022-09-24T16:37:08.402Z,12.85
2022-09-24T16:39:35.039Z,8.90
2022-09-24T16:42:02.023Z,9.70
2022-09-24T16:44:28.576Z,7.68
2022-09-24T16:46:55.222Z,9.77
2022-09-24T16:49:23.673Z,8.05
2022-09-24T16:51:50.237Z,10.50
2022-09-24T16:54:18.948Z,11.20
2022-09-24T16:56:50.124Z,8.73
2022-09-24T16:59:16.850Z,13.38
2022-09-24T17:01:43.674Z,9.90
2022-09-24T17:04:10.914Z,9.17
2022-09-24T17:06:37.927Z,9.00
2022-09-24T17:09:23.515Z,9.13
2022-09-24T17:11:50.195Z,7.60
2022-09-24T17:14:17.818Z,12.82
2022-09-24T17:16:44.630Z,11.00
2022-09-24T17:19:12.746Z,10.63
2022-09-24T17:21:41.692Z,11.02
2022-09-24T17:24:09.078Z,8.50
2022-09-24T17:26:35.896Z,12.23
2022-09-24T17:29:02.517Z,9.30
2022-09-24T17:31:31.200Z,9.40
2022-09-24T17:34:04.775Z,9.93
2022-09-24T17:36:33.931Z,10.65
2022-09-24T17:39:01.089Z,11.63
2022-09-24T17:41:29.349Z,11.10
2022-09-24T17:43:59.781Z,16.55
2022-09-24T17:46:32.051Z,10.15
2022-09-24T17:49:00.154Z,11.43
2022-09-24T17:51:32.517Z,12.75
2022-09-24T17:54:01.507Z,14.03
2022-09-24T17:56:29.937Z,13.40
2022-09-24T17:58:56.951Z,14.70
2022-09-24T18:01:29.699Z,15.05
2022-09-24T18:03:58.405Z,11.27
2022-09-24T18:06:31.982Z,11.73
2022-09-24T18:09:01.092Z,10.98
2022-09-24T18:11:30.758Z,13.38
2022-09-24T18:13:59.775Z,11.02
2022-09-24T18:16:29.282Z,10.90
2022-09-24T18:18:56.506Z,10.17
2022-09-24T18:21:24.479Z,8.98
2022-09-24T18:23:55.790Z,10.65
2022-09-24T18:26:25.082Z,9.23
2022-09-24T18:28:57.843Z,12.38
2022-09-24T18:31:28.132Z,10.77
2022-09-24T18:33:57.284Z,9.70
2022-09-24T18:36:25.780Z,11.43
2022-09-24T18:38:53.368Z,13.57
2022-09-24T18:41:22.982Z,12.05
2022-09-24T18:43:50.984Z,9.60
2022-09-24T18:46:19.987Z,11.15
2022-09-24T18:48:49.813Z,8.85
2022-09-24T18:51:22.221Z,9.20
2022-09-24T18:53:57.749Z,11.27
2022-09-24T18:56:24.563Z,10.07
2022-09-24T18:59:07.302Z,10.52
2022-09-24T19:01:36.916Z,11.50
2022-09-24T19:04:03.909Z,13.52
2022-09-24T19:06:31.406Z,8.35
2022-09-24T19:08:57.993Z,9.30
2022-09-24T19:11:24.566Z,9.85
2022-09-24T19:13:53.348Z,9.43
2022-09-24T19:16:25.420Z,11.95
2022-09-24T19:18:53.568Z,10.13
2022-09-24T19:21:23.079Z,12.97
2022-09-24T19:23:52.336Z,6.25
2022-09-24T19:26:24.453Z,6.63
2022-09-24T19:28:52.125Z,12.82
2022-09-24T19:31:21.920Z,9.45
2022-09-24T19:33:50.055Z,8.60
2022-09-24T19:36:17.368Z,10.45
2022-09-24T19:38:44.611Z,6.93
2022-09-24T19:41:21.403Z,6.20
2022-09-24T19:43:52.285Z,8.75
2022-09-24T19:46:20.749Z,7.63
2022-09-24T19:48:49.127Z,9.40
2022-09-24T19:51:18.202Z,9.25
2022-09-24T19:53:50.509Z,11.48
2022-09-24T19:56:19.587Z,7.57
2022-09-24T19:58:47.122Z,6.20
2022-09-24T20:01:17.356Z,9.85
2022-09-24T20:03:45.349Z,10.75
2022-09-24T20:06:14.564Z,10.32
2022-09-24T20:08:41.623Z,8.27
2022-09-24T20:11:11.539Z,11.03
2022-09-24T20:13:46.128Z,8.07
2022-09-24T20:16:22.252Z,7.00
2022-09-24T20:18:50.578Z,10.63
2022-09-24T20:21:19.212Z,9.27
2022-09-24T20:23:48.796Z,8.83
2022-09-24T20:26:35.585Z,6.93
2022-09-24T20:29:02.937Z,10.23
2022-09-24T20:31:31.307Z,10.38
2022-09-24T20:33:58.197Z,11.77
2022-09-24T20:36:25.343Z,12.97
2022-09-24T20:38:52.551Z,11.90
2022-09-24T20:41:22.588Z,7.78
2022-09-24T20:43:49.778Z,9.15
2022-09-24T20:46:24.097Z,10.70
2022-09-24T20:48:52.398Z,9.13
2022-09-24T20:51:20.592Z,11.30
2022-09-24T20:53:48.419Z,11.93
2022-09-24T20:56:16.613Z,11.73
2022-09-24T20:58:43.200Z,9.55
2022-09-24T21:01:11.011Z,13.93
2022-09-24T21:03:44.366Z,9.63
2022-09-24T21:06:12.071Z,11.63
2022-09-24T21:08:41.329Z,10.50
2022-09-24T21:11:13.598Z,11.32
2022-09-24T21:13:45.843Z,12.70
2022-09-24T21:16:12.691Z,9.10
2022-09-24T21:18:41.038Z,12.55
2022-09-24T21:21:11.837Z,16.88
2022-09-24T21:23:39.693Z,12.27
2022-09-24T21:26:10.296Z,12.00
2022-09-24T21:28:37.742Z,8.80
2022-09-24T21:31:05.562Z,9.93
2022-09-24T21:33:33.599Z,14.32
2022-09-24T21:36:01.775Z,8.15
2022-09-24T21:38:28.373Z,15.77
2022-09-24T21:40:55.860Z,8.02
2022-09-24T21:43:28.603Z,10.02
2022-09-24T21:46:06.551Z,12.45
2022-09-24T21:48:34.173Z,9.52
2022-09-24T21:51:09.888Z,10.57
2022-09-24T21:53:37.919Z,9.82
2022-09-24T21:56:06.139Z,11.80
2022-09-24T21:58:32.630Z,11.10
2022-09-24T22:01:05.065Z,12.50
2022-09-24T22:03:32.329Z,9.63
2022-09-24T22:06:03.440Z,9.65
2022-09-24T22:08:31.958Z,10.65
2022-09-24T22:11:04.429Z,10.27
2022-09-24T22:13:32.071Z,11.73
2022-09-24T22:15:59.942Z,10.70
2022-09-24T22:18:28.059Z,15.88
2022-09-24T22:20:55.997Z,9.43
2022-09-24T22:23:22.949Z,9.18
2022-09-24T22:25:57.095Z,12.95
2022-09-24T22:28:25.682Z,10.03
2022-09-24T22:30:53.513Z,11.40
2022-09-24T22:33:53.123Z,12.15
2022-09-24T22:36:19.858Z,11.18
2022-09-24T22:38:48.666Z,8.48
2022-09-24T22:41:15.853Z,12.67
2022-09-24T22:43:42.370Z,9.52
2022-09-24T22:46:11.730Z,13.98
2022-09-24T22:48:39.278Z,10.27
2022-09-24T22:51:07.188Z,13.43
2022-09-24T22:53:34.873Z,13.80
2022-09-24T22:56:07.747Z,13.75
2022-09-24T22:58:35.167Z,13.13
2022-09-24T23:01:22.955Z,11.80
2022-09-24T23:03:54.112Z,10.00
2022-09-24T23:06:23.416Z,16.77
2022-09-24T23:08:51.894Z,14.25
2022-09-24T23:11:19.866Z,13.60
2022-09-24T23:13:50.737Z,13.88
2022-09-24T23:16:20.663Z,14.63
2022-09-24T23:18:48.325Z,13.07
2022-09-24T23:21:17.193Z,14.38
2022-09-24T23:23:44.480Z,11.68
2022-09-24T23:26:16.716Z,10.73
2022-09-24T23:28:44.772Z,13.85
2022-09-24T23:31:13.548Z,14.93
2022-09-24T23:33:41.391Z,16.83
2022-09-24T23:36:10.588Z,12.05
2022-09-24T23:38:38.742Z,12.43
2022-09-24T23:41:06.904Z,13.35
2022-09-24T23:43:33.663Z,11.40
2022-09-24T23:46:01.193Z,12.98
2022-09-24T23:48:28.537Z,15.85
2022-09-24T23:50:55.609Z,12.27
2022-09-24T23:53:22.166Z,12.40
2022-09-24T23:55:49.442Z,16.33
2022-09-24T23:58:18.339Z,15.20
